Time;durP1;ratioP1;P1;durP2;ratioP2;P2;SDS_P1;SDS_P2;PMS_P1;PMS_P2;Temp;Humidity;BMP_temperature;BMP_pressure;BME280_temperature;BME280_humidity;BME280_pressure;Samples;Min_cycle;Max_cycle;Signal;HPM_P1;HPM_P2
2023/03/13 00:00:05;;;;;;;8.53;6.87;;;2.30;99.90;;;;;;10124196;29;20194;-86
2023/03/13 00:05:08;;;;;;;8.40;6.40;;;2.20;99.90;;;;;;10124622;29;20326;-86
2023/03/13 00:10:10;;;;;;;14.43;8.03;;;2.30;99.90;;;;;;10110898;29;20224;-86
2023/03/13 00:15:13;;;;;;;7.13;5.87;;;2.30;99.90;;;;;;10144232;29;20224;-86
2023/03/13 00:20:16;;;;;;;10.80;7.33;;;2.30;99.90;;;;;;10125556;29;20564;-86
2023/03/13 00:25:19;;;;;;;13.03;8.67;;;2.40;99.90;;;;;;10160355;29;20193;-86
2023/03/13 00:30:22;;;;;;;10.50;8.47;;;2.50;99.90;;;;;;10148741;29;20203;-85
2023/03/13 00:35:24;;;;;;;12.07;8.80;;;2.50;99.90;;;;;;10149037;29;20220;-86
2023/03/13 00:40:28;;;;;;;10.00;7.87;;;2.50;99.90;;;;;;10152909;29;20204;-85
2023/03/13 00:45:30;;;;;;;13.93;10.00;;;2.50;99.90;;;;;;10166685;29;20193;-86
2023/03/13 00:50:33;;;;;;;13.30;9.77;;;2.60;99.90;;;;;;10173450;29;20193;-86
2023/03/13 00:55:36;;;;;;;10.67;7.53;;;2.60;99.90;;;;;;10151694;29;20213;-85
2023/03/13 01:00:38;;;;;;;13.57;9.20;;;2.80;99.90;;;;;;10186399;29;20245;-85
2023/03/13 01:05:43;;;;;;;10.43;7.60;;;2.70;99.90;;;;;;10149695;29;20214;-86
2023/03/13 01:10:49;;;;;;;9.50;5.30;;;3.00;99.90;;;;;;10168154;29;20225;-85
2023/03/13 01:15:52;;;;;;;10.27;8.33;;;3.30;99.90;;;;;;10168599;29;20213;-86
2023/03/13 01:20:54;;;;;;;9.27;7.77;;;3.60;99.90;;;;;;10158759;29;20216;-85
2023/03/13 01:25:57;;;;;;;14.00;8.87;;;3.40;99.90;;;;;;10153443;29;20215;-86
2023/03/13 01:31:08;;;;;;;12.50;9.73;;;3.60;99.90;;;;;;10120597;29;20227;-85
2023/03/13 01:36:12;;;;;;;13.00;10.20;;;3.60;99.90;;;;;;10121346;29;20210;-86
2023/03/13 01:41:15;;;;;;;13.00;9.37;;;3.60;99.90;;;;;;10120223;29;20219;-87
2023/03/13 01:46:26;;;;;;;13.10;9.47;;;3.70;99.90;;;;;;10120479;29;20202;-86
2023/03/13 01:52:07;;;;;;;10.13;8.10;;;4.00;99.90;;;;;;10072616;29;20266;-86
2023/03/13 01:57:54;;;;;;;12.03;9.43;;;4.40;99.90;;;;;;10085730;29;20289;-86
2023/03/13 02:03:03;;;;;;;10.20;8.90;;;5.10;99.90;;;;;;9992637;29;20220;-86
2023/03/13 02:08:14;;;;;;;11.27;7.77;;;4.90;99.90;;;;;;9980948;29;20762;-86
2023/03/13 02:13:19;;;;;;;11.23;8.53;;;5.00;99.90;;;;;;9978091;29;20232;-86
2023/03/13 02:18:22;;;;;;;17.73;11.83;;;5.40;99.90;;;;;;9976534;29;20825;-86
2023/03/13 02:23:39;;;;;;;11.53;8.97;;;5.40;99.90;;;;;;9962657;29;20224;-86
2023/03/13 02:28:42;;;;;;;20.97;10.77;;;5.70;99.90;;;;;;9977508;29;20698;-86
2023/03/13 02:33:48;;;;;;;16.67;10.73;;;5.90;99.90;;;;;;9976058;29;20248;-86
2023/03/13 02:39:00;;;;;;;21.27;13.53;;;6.10;99.90;;;;;;10058695;29;20243;-86
2023/03/13 02:44:05;;;;;;;16.30;11.27;;;5.60;99.90;;;;;;10106785;29;20552;-86
2023/03/13 02:49:37;;;;;;;14.73;11.03;;;5.30;99.90;;;;;;10102685;29;20218;-86
2023/03/13 02:54:42;;;;;;;16.03;11.47;;;4.90;99.90;;;;;;10090571;29;20243;-86
2023/03/13 02:59:45;;;;;;;14.23;11.30;;;4.80;99.90;;;;;;10102048;29;20271;-86
2023/03/13 03:04:49;;;;;;;14.37;11.33;;;4.60;99.90;;;;;;10102554;29;20221;-86
2023/03/13 03:09:51;;;;;;;13.10;11.70;;;4.50;99.90;;;;;;10079878;29;20569;-86
2023/03/13 03:14:55;;;;;;;15.83;12.13;;;4.40;99.90;;;;;;10101497;29;20221;-86
2023/03/13 03:19:59;;;;;;;16.50;10.97;;;4.40;99.90;;;;;;10083498;29;20472;-86
2023/03/13 03:25:01;;;;;;;13.23;9.80;;;4.40;99.90;;;;;;10064143;29;20267;-86
2023/03/13 03:30:06;;;;;;;12.63;9.90;;;4.40;99.90;;;;;;10101586;29;20265;-86
2023/03/13 03:35:11;;;;;;;14.33;9.63;;;4.20;99.90;;;;;;10101170;29;20237;-86
2023/03/13 03:40:14;;;;;;;14.07;10.53;;;4.20;99.90;;;;;;10100849;29;20676;-86
2023/03/13 03:45:18;;;;;;;12.63;9.07;;;4.20;99.90;;;;;;10098226;29;20225;-86
2023/03/13 03:50:21;;;;;;;13.33;10.43;;;4.10;99.90;;;;;;10063706;29;20218;-86
2023/03/13 03:55:31;;;;;;;14.90;9.57;;;4.00;99.90;;;;;;10085686;29;20236;-86
2023/03/13 04:00:36;;;;;;;14.07;10.30;;;4.00;99.90;;;;;;10099749;29;20277;-86
2023/03/13 04:05:40;;;;;;;13.40;9.47;;;3.90;99.90;;;;;;10099985;29;20273;-86
2023/03/13 04:10:43;;;;;;;15.37;9.97;;;3.80;99.90;;;;;;10097524;29;20265;-86
2023/03/13 04:15:47;;;;;;;12.00;9.10;;;3.80;99.90;;;;;;10099429;29;20309;-86
2023/03/13 04:21:02;;;;;;;18.10;10.77;;;3.90;99.90;;;;;;10076893;29;20285;-86
2023/03/13 04:26:11;;;;;;;18.73;12.90;;;3.90;99.90;;;;;;10061018;29;20217;-86
2023/03/13 04:31:15;;;;;;;24.13;13.77;;;3.80;99.90;;;;;;10093098;29;20277;-86
2023/03/13 04:36:47;;;;;;;13.50;9.13;;;3.80;99.90;;;;;;10062049;29;20274;-86
2023/03/13 04:42:15;;;;;;;11.80;8.13;;;3.70;99.90;;;;;;10053353;29;20283;-86
2023/03/13 04:47:42;;;;;;;8.87;5.87;;;3.60;99.90;;;;;;10060027;29;20240;-86
2023/03/13 04:53:14;;;;;;;11.93;8.47;;;3.60;99.90;;;;;;10079326;29;20738;-86
2023/03/13 04:58:27;;;;;;;10.83;8.87;;;3.60;99.90;;;;;;10084760;29;20281;-86
2023/03/13 05:03:49;;;;;;;11.27;7.83;;;3.60;99.90;;;;;;10081794;29;20253;-86
2023/03/13 05:09:05;;;;;;;12.60;8.80;;;3.60;99.90;;;;;;10089301;29;20801;-86
2023/03/13 05:14:37;;;;;;;11.20;7.73;;;3.70;99.90;;;;;;10060484;29;20261;-86
2023/03/13 05:19:58;;;;;;;7.83;6.20;;;4.10;99.90;;;;;;10053721;29;20742;-86
2023/03/13 05:25:15;;;;;;;23.17;10.00;;;4.50;99.90;;;;;;10051017;29;20309;-86
2023/03/13 05:30:49;;;;;;;21.90;11.83;;;4.70;99.90;;;;;;10053593;29;20258;-86
2023/03/13 05:36:27;;;;;;;19.97;11.43;;;4.90;99.90;;;;;;9933543;29;20268;-86
2023/03/13 05:41:48;;;;;;;26.23;15.30;;;5.20;99.90;;;;;;9934017;29;20799;-87
2023/03/13 05:47:01;;;;;;;24.37;12.33;;;5.10;99.90;;;;;;9909719;29;20300;-87
2023/03/13 05:52:28;;;;;;;13.17;7.97;;;5.30;99.90;;;;;;9923482;29;20246;-87
2023/03/13 05:57:51;;;;;;;26.97;12.10;;;5.50;99.90;;;;;;9934490;29;20312;-86
2023/03/13 06:03:14;;;;;;;17.67;9.27;;;5.80;99.90;;;;;;9934746;29;20288;-87
2023/03/13 06:08:20;;;;;;;32.47;16.50;;;6.20;99.90;;;;;;9972975;29;20772;-88
2023/03/13 06:13:24;;;;;;;40.03;20.03;;;6.40;99.90;;;;;;10074428;29;20277;-88
2023/03/13 06:18:29;;;;;;;22.80;12.07;;;6.50;99.90;;;;;;10073211;29;20267;-87
2023/03/13 06:23:32;;;;;;;25.43;12.30;;;6.40;99.90;;;;;;10090069;29;20305;-88
2023/03/13 06:28:35;;;;;;;26.17;12.87;;;6.30;99.90;;;;;;10113400;29;20304;-87
2023/03/13 06:33:37;;;;;;;15.13;8.80;;;6.40;99.90;;;;;;10117448;29;20256;-87
2023/03/13 06:38:40;;;;;;;18.30;11.77;;;6.40;99.90;;;;;;10070919;29;20236;-87
2023/03/13 06:43:43;;;;;;;13.10;7.73;;;6.20;99.90;;;;;;10065909;29;20321;-87
2023/03/13 06:48:45;;;;;;;12.70;8.03;;;6.50;99.90;;;;;;10061118;29;20305;-88
2023/03/13 06:53:48;;;;;;;15.13;7.37;;;7.00;99.90;;;;;;10058835;29;20683;-89
2023/03/13 06:58:50;;;;;;;19.17;8.20;;;7.20;99.90;;;;;;10065497;29;20240;-88
2023/03/13 07:03:53;;;;;;;18.87;9.50;;;7.00;99.90;;;;;;10108106;29;20316;-88
2023/03/13 07:08:56;;;;;;;16.17;10.80;;;7.00;99.90;;;;;;10110265;29;20292;-88
2023/03/13 07:14:00;;;;;;;15.97;8.37;;;7.00;99.90;;;;;;10103972;29;20320;-88
2023/03/13 07:19:17;;;;;;;24.27;9.77;;;7.10;99.90;;;;;;10115308;29;20268;-88
2023/03/13 07:24:20;;;;;;;13.20;8.07;;;7.20;99.90;;;;;;10097865;29;20248;-88
2023/03/13 07:29:23;;;;;;;12.87;8.30;;;7.40;99.90;;;;;;10103153;29;20252;-89
2023/03/13 07:34:25;;;;;;;18.57;8.70;;;7.40;99.90;;;;;;10100563;29;20264;-88
2023/03/13 07:39:28;;;;;;;16.33;8.67;;;7.50;99.90;;;;;;10123042;29;20281;-88
2023/03/13 07:44:31;;;;;;;17.27;9.53;;;7.50;99.90;;;;;;10107736;29;20340;-87
2023/03/13 07:49:38;;;;;;;12.33;6.83;;;7.60;99.90;;;;;;10078107;29;20241;-87
2023/03/13 07:54:40;;;;;;;16.57;7.60;;;7.80;99.90;;;;;;10130373;29;20263;-87
2023/03/13 07:59:43;;;;;;;14.20;7.90;;;8.00;99.90;;;;;;10120403;29;20249;-86
2023/03/13 08:04:45;;;;;;;15.37;6.97;;;8.20;99.90;;;;;;10090348;29;20778;-86
2023/03/13 08:09:48;;;;;;;17.50;7.80;;;8.40;99.90;;;;;;10088053;29;20269;-86
2023/03/13 08:14:51;;;;;;;19.07;8.37;;;8.50;99.90;;;;;;10090341;29;20268;-86
2023/03/13 08:19:53;;;;;;;19.30;8.63;;;8.50;99.90;;;;;;10091222;29;20643;-86
2023/03/13 08:24:56;;;;;;;12.13;6.30;;;8.50;99.90;;;;;;10089952;29;20248;-86
2023/03/13 08:29:58;;;;;;;17.17;11.23;;;8.50;99.90;;;;;;10085541;29;20313;-86
2023/03/13 08:35:02;;;;;;;21.60;7.97;;;8.60;99.90;;;;;;10075190;29;20268;-86
2023/03/13 08:40:09;;;;;;;13.77;8.60;;;8.60;99.90;;;;;;10087967;29;20245;-86
2023/03/13 08:45:12;;;;;;;19.67;8.83;;;8.70;99.90;;;;;;10084260;29;20389;-86
2023/03/13 08:50:14;;;;;;;19.67;9.03;;;8.80;99.90;;;;;;10090382;29;20252;-86
2023/03/13 08:55:17;;;;;;;12.87;7.10;;;8.90;99.90;;;;;;10079179;29;20260;-87
2023/03/13 09:00:20;;;;;;;17.33;8.30;;;9.00;99.90;;;;;;10089011;29;20895;-87
2023/03/13 09:05:23;;;;;;;20.90;9.77;;;9.10;99.90;;;;;;10088554;29;20616;-87
2023/03/13 09:10:25;;;;;;;19.53;8.47;;;9.20;99.90;;;;;;10077333;29;20236;-87
2023/03/13 09:15:28;;;;;;;17.93;7.07;;;9.20;99.90;;;;;;10088272;29;20419;-88
2023/03/13 09:20:31;;;;;;;15.20;6.43;;;9.50;99.90;;;;;;10088835;29;20337;-88
2023/03/13 09:25:36;;;;;;;14.07;5.80;;;9.90;99.90;;;;;;10089500;29;20272;-88
2023/03/13 09:30:39;;;;;;;16.97;8.83;;;10.30;99.90;;;;;;10072111;29;20244;-88
2023/03/13 09:35:42;;;;;;;20.50;7.97;;;10.10;99.90;;;;;;10088454;29;20292;-88
2023/03/13 09:40:48;;;;;;;14.77;7.97;;;10.20;99.90;;;;;;10084744;29;20324;-88
2023/03/13 09:46:15;;;;;;;19.37;10.10;;;10.20;99.90;;;;;;10051642;29;20619;-88
2023/03/13 09:51:24;;;;;;;19.77;10.53;;;10.10;99.90;;;;;;10072228;29;20236;-88
2023/03/13 09:56:37;;;;;;;16.77;7.83;;;9.90;99.90;;;;;;10097855;29;20268;-88
2023/03/13 10:01:42;;;;;;;14.20;8.47;;;9.80;99.90;;;;;;10103946;29;20240;-88
2023/03/13 10:06:47;;;;;;;23.57;9.70;;;9.80;99.90;;;;;;10115034;29;20247;-88
2023/03/13 10:12:16;;;;;;;20.33;10.87;;;9.90;99.90;;;;;;10109226;29;20265;-88
2023/03/13 10:17:34;;;;;;;23.63;10.63;;;9.80;99.90;;;;;;10105639;29;20907;-88
2023/03/13 10:22:39;;;;;;;21.67;9.70;;;9.80;99.90;;;;;;10110301;29;20247;-88
2023/03/13 10:27:49;;;;;;;24.90;10.03;;;9.80;99.90;;;;;;10104361;29;20252;-88
2023/03/13 10:33:05;;;;;;;21.93;10.13;;;9.80;99.90;;;;;;10124126;29;20248;-88
2023/03/13 10:38:21;;;;;;;23.23;10.30;;;9.60;99.90;;;;;;10095204;29;20725;-88
2023/03/13 10:43:28;;;;;;;24.57;10.33;;;9.50;99.90;;;;;;10093468;29;20248;-88
2023/03/13 10:48:36;;;;;;;24.23;11.43;;;9.40;99.90;;;;;;10095112;29;20309;-88
2023/03/13 10:53:40;;;;;;;24.50;10.53;;;9.30;99.90;;;;;;10089773;29;20296;-88
2023/03/13 10:58:50;;;;;;;23.27;9.90;;;9.20;99.90;;;;;;10088200;29;20249;-88
2023/03/13 11:03:56;;;;;;;21.90;11.23;;;9.30;99.90;;;;;;10089096;29;20244;-88
2023/03/13 11:09:18;;;;;;;24.93;12.17;;;9.40;99.90;;;;;;10074209;29;20308;-89
2023/03/13 11:14:24;;;;;;;24.67;10.70;;;9.40;99.90;;;;;;10088204;29;20329;-88
2023/03/13 11:19:45;;;;;;;21.67;11.33;;;9.50;99.90;;;;;;10094124;29;20264;-88
2023/03/13 11:25:32;;;;;;;24.53;13.77;;;9.40;99.90;;;;;;10088569;29;20302;-88
2023/03/13 11:30:52;;;;;;;21.53;10.17;;;9.50;99.90;;;;;;9995271;29;20262;-89
2023/03/13 11:36:12;;;;;;;16.47;9.17;;;9.50;99.90;;;;;;9996119;29;20261;-88
2023/03/13 11:41:41;;;;;;;15.33;8.53;;;9.40;99.90;;;;;;9994663;29;20267;-89
2023/03/13 11:47:18;;;;;;;19.13;9.90;;;9.30;99.90;;;;;;10010553;29;20881;-88
2023/03/13 11:52:30;;;;;;;17.43;10.40;;;9.20;99.90;;;;;;10010238;29;20257;-88
2023/03/13 11:58:10;;;;;;;23.47;9.83;;;9.20;99.90;;;;;;9996913;29;20378;-88
2023/03/13 12:03:19;;;;;;;13.93;8.37;;;9.10;99.90;;;;;;10092039;29;20244;-89
2023/03/13 12:08:35;;;;;;;14.13;7.57;;;9.10;99.90;;;;;;10089771;29;20252;-88
2023/03/13 12:13:48;;;;;;;13.67;8.30;;;9.20;99.90;;;;;;10091025;29;20255;-88
2023/03/13 12:18:52;;;;;;;12.37;6.83;;;9.20;99.90;;;;;;10087691;29;20329;-88
2023/03/13 12:24:16;;;;;;;9.30;4.83;;;9.20;99.90;;;;;;10056731;29;20271;-88
2023/03/13 12:29:37;;;;;;;14.27;8.63;;;9.20;99.90;;;;;;10104499;29;20256;-89
2023/03/13 12:34:57;;;;;;;19.47;11.13;;;9.20;99.90;;;;;;10123720;29;20268;-88
2023/03/13 12:40:10;;;;;;;10.50;6.70;;;9.20;99.90;;;;;;10120276;29;20266;-88
2023/03/13 12:45:18;;;;;;;8.33;5.10;;;9.50;99.90;;;;;;10055974;29;20241;-88
2023/03/13 12:50:30;;;;;;;13.30;6.60;;;9.80;99.90;;;;;;10055051;29;20309;-88
2023/03/13 12:55:57;;;;;;;9.17;4.70;;;9.90;99.90;;;;;;10087042;29;21023;-88
2023/03/13 13:01:04;;;;;;;7.50;5.77;;;10.60;99.90;;;;;;10089173;29;20254;-87
2023/03/13 13:06:15;;;;;;;11.30;6.23;;;10.90;99.90;;;;;;10086507;29;20254;-87
2023/03/13 13:11:33;;;;;;;12.43;7.33;;;11.30;99.90;;;;;;10086545;29;20307;-88
2023/03/13 13:16:42;;;;;;;12.20;6.87;;;11.00;99.90;;;;;;10113132;29;20305;-88
2023/03/13 13:21:44;;;;;;;15.23;8.20;;;10.70;99.90;;;;;;10110907;29;20699;-89
2023/03/13 13:26:48;;;;;;;11.17;6.37;;;10.50;99.90;;;;;;10073728;29;20256;-88
2023/03/13 13:31:50;;;;;;;14.97;9.13;;;10.50;99.90;;;;;;10050174;29;20253;-88
2023/03/13 13:36:55;;;;;;;13.57;8.77;;;10.40;99.90;;;;;;10071571;29;20676;-88
2023/03/13 13:41:58;;;;;;;15.90;8.73;;;10.60;99.90;;;;;;10089173;29;20313;-88
2023/03/13 13:47:01;;;;;;;17.40;7.00;;;10.60;99.90;;;;;;10089939;29;20310;-88
2023/03/13 13:52:04;;;;;;;8.63;6.23;;;10.90;99.90;;;;;;10090822;29;20281;-87
2023/03/13 13:57:31;;;;;;;19.83;8.80;;;10.80;99.90;;;;;;10098296;29;20264;-88
2023/03/13 14:02:35;;;;;;;20.40;10.73;;;10.90;99.90;;;;;;10052029;29;20285;-88
2023/03/13 14:08:02;;;;;;;20.70;10.77;;;10.80;99.90;;;;;;10089057;29;20245;-88
2023/03/13 14:13:18;;;;;;;13.50;7.73;;;10.70;99.90;;;;;;10087849;29;20386;-88
2023/03/13 14:18:28;;;;;;;16.10;11.33;;;11.00;99.90;;;;;;10086757;29;20347;-88
2023/03/13 14:23:34;;;;;;;18.13;12.20;;;10.80;99.90;;;;;;10087489;29;20248;-87
2023/03/13 14:28:40;;;;;;;19.07;10.63;;;10.80;99.90;;;;;;10086709;29;20249;-88
2023/03/13 14:33:43;;;;;;;13.07;7.90;;;10.80;99.90;;;;;;10088865;29;20240;-87
2023/03/13 14:38:56;;;;;;;27.37;16.27;;;10.90;99.90;;;;;;10102216;29;20362;-88
2023/03/13 14:44:12;;;;;;;14.33;7.00;;;10.90;99.90;;;;;;10109672;29;20320;-87
2023/03/13 14:49:19;;;;;;;17.93;9.73;;;11.00;99.90;;;;;;10103809;29;20244;-87
2023/03/13 14:54:25;;;;;;;14.93;10.20;;;11.10;99.90;;;;;;10089079;29;20249;-88
2023/03/13 14:59:28;;;;;;;16.83;9.83;;;11.10;99.90;;;;;;10094564;29;20270;-87
2023/03/13 15:04:52;;;;;;;14.57;7.70;;;11.10;99.90;;;;;;10083718;29;20243;-87
2023/03/13 15:09:56;;;;;;;18.27;9.70;;;11.10;99.90;;;;;;10082421;29;20250;-88
2023/03/13 15:14:58;;;;;;;29.17;13.93;;;11.00;99.90;;;;;;10091792;29;20273;-88
2023/03/13 15:20:01;;;;;;;18.47;10.80;;;11.00;99.90;;;;;;10092476;29;20822;-87
2023/03/13 15:25:17;;;;;;;14.07;8.57;;;11.00;99.90;;;;;;10107471;29;20241;-87
2023/03/13 15:30:24;;;;;;;18.10;10.50;;;11.00;99.90;;;;;;10108091;29;20243;-88
2023/03/13 15:35:29;;;;;;;18.87;10.37;;;11.00;99.90;;;;;;10109346;29;20265;-88
2023/03/13 15:40:32;;;;;;;14.17;9.07;;;10.90;99.90;;;;;;10113974;29;20746;-88
2023/03/13 15:45:37;;;;;;;14.70;7.40;;;10.90;99.90;;;;;;10097488;29;20250;-88
2023/03/13 15:50:40;;;;;;;16.20;11.47;;;10.90;99.90;;;;;;10090882;29;20254;-88
2023/03/13 15:55:43;;;;;;;22.13;10.67;;;10.80;99.90;;;;;;10082414;29;20273;-87
2023/03/13 16:00:47;;;;;;;18.10;11.73;;;10.80;99.90;;;;;;10068850;29;20245;-87
2023/03/13 16:05:50;;;;;;;18.00;9.17;;;10.70;99.90;;;;;;10093101;29;20248;-87
2023/03/13 16:10:54;;;;;;;17.53;10.73;;;10.60;99.90;;;;;;10080125;29;20297;-87
2023/03/13 16:15:57;;;;;;;23.10;12.03;;;10.60;99.90;;;;;;10090508;29;20720;-87
2023/03/13 16:21:00;;;;;;;17.37;10.53;;;10.50;99.90;;;;;;10090642;29;20324;-87
2023/03/13 16:26:02;;;;;;;17.93;10.40;;;10.40;99.90;;;;;;10090771;29;20767;-87
2023/03/13 16:31:07;;;;;;;14.03;10.10;;;10.40;99.90;;;;;;10091945;29;20277;-86
2023/03/13 16:36:14;;;;;;;16.90;9.00;;;10.40;99.90;;;;;;10080700;29;20814;-86
2023/03/13 16:41:20;;;;;;;15.13;8.67;;;10.40;99.90;;;;;;10087922;29;20714;-86
2023/03/13 16:46:34;;;;;;;10.47;7.70;;;10.50;99.90;;;;;;10057053;29;20306;-86
2023/03/13 16:51:36;;;;;;;14.30;9.47;;;10.40;99.90;;;;;;10068338;29;20249;-86
2023/03/13 16:56:42;;;;;;;15.67;9.83;;;10.40;99.90;;;;;;9733399;29;10000577;-86
2023/03/13 17:01:45;;;;;;;14.17;8.77;;;10.30;99.90;;;;;;10048316;29;20253;-86
2023/03/13 17:06:48;;;;;;;18.87;10.17;;;10.30;99.90;;;;;;10047950;29;20249;-87
2023/03/13 17:11:51;;;;;;;15.00;9.07;;;10.50;99.90;;;;;;10065426;29;21056;-87
2023/03/13 17:16:54;;;;;;;14.57;8.60;;;10.50;99.90;;;;;;10096510;29;20755;-86
2023/03/13 17:21:56;;;;;;;16.43;9.73;;;10.60;99.90;;;;;;10094289;29;20272;-86
2023/03/13 17:26:59;;;;;;;16.57;9.37;;;10.70;99.90;;;;;;10089860;29;20266;-87
2023/03/13 17:32:01;;;;;;;11.30;8.03;;;10.60;99.90;;;;;;10092587;29;20735;-86
2023/03/13 17:37:14;;;;;;;9.90;6.93;;;10.60;99.90;;;;;;10058132;29;20316;-87
2023/03/13 17:42:17;;;;;;;13.73;6.63;;;10.60;99.90;;;;;;10064789;29;20326;-87
2023/03/13 17:47:22;;;;;;;8.43;4.87;;;10.60;99.90;;;;;;10072767;29;20244;-87
2023/03/13 17:52:25;;;;;;;8.13;5.90;;;10.60;99.90;;;;;;10069585;29;20765;-87
2023/03/13 17:57:28;;;;;;;12.07;6.40;;;10.70;99.90;;;;;;10055538;29;20338;-87
2023/03/13 18:02:30;;;;;;;12.80;7.33;;;10.60;99.90;;;;;;10056202;29;20294;-86
2023/03/13 18:07:34;;;;;;;9.43;6.90;;;10.40;99.90;;;;;;10082440;29;20264;-87
2023/03/13 18:12:36;;;;;;;12.40;8.03;;;10.10;99.90;;;;;;10072410;29;20240;-86
2023/03/13 18:17:39;;;;;;;12.50;7.67;;;10.00;99.90;;;;;;10090489;29;20276;-87
2023/03/13 18:22:42;;;;;;;11.23;8.70;;;9.80;99.90;;;;;;10077690;29;20241;-87
2023/03/13 18:27:44;;;;;;;17.70;9.67;;;9.60;99.90;;;;;;10073650;29;20710;-86
2023/03/13 18:32:47;;;;;;;15.77;10.00;;;9.50;99.90;;;;;;10074311;29;20232;-87
2023/03/13 18:37:50;;;;;;;15.87;9.87;;;9.40;99.90;;;;;;10071193;29;20256;-86
2023/03/13 18:42:52;;;;;;;14.90;10.97;;;9.50;99.90;;;;;;10070346;29;20266;-86
2023/03/13 18:47:55;;;;;;;13.33;9.13;;;9.50;99.90;;;;;;10074188;29;20655;-86
2023/03/13 18:52:59;;;;;;;14.57;9.03;;;9.50;99.90;;;;;;10069538;29;20249;-86
2023/03/13 18:58:01;;;;;;;17.33;9.70;;;9.60;99.90;;;;;;10067017;29;20317;-86
2023/03/13 19:03:04;;;;;;;17.60;8.43;;;9.60;99.90;;;;;;10073807;29;20692;-86
2023/03/13 19:08:09;;;;;;;17.33;9.90;;;9.50;99.90;;;;;;10090201;29;20289;-86
2023/03/13 19:13:11;;;;;;;13.87;9.73;;;9.50;99.90;;;;;;10066177;29;20258;-86
2023/03/13 19:18:14;;;;;;;15.47;8.87;;;9.50;99.90;;;;;;10078048;29;20277;-87
2023/03/13 19:23:18;;;;;;;14.03;8.50;;;9.50;99.90;;;;;;10071376;29;20234;-86
2023/03/13 19:28:20;;;;;;;11.63;8.23;;;9.60;99.90;;;;;;10104711;29;20837;-85
2023/03/13 19:33:23;;;;;;;11.17;7.00;;;9.50;99.90;;;;;;10070943;29;20237;-86
2023/03/13 19:38:25;;;;;;;13.23;7.80;;;9.60;99.90;;;;;;10084224;29;20268;-87
2023/03/13 19:43:28;;;;;;;10.20;7.93;;;9.70;99.90;;;;;;10078398;29;20261;-87
2023/03/13 19:48:31;;;;;;;13.57;7.90;;;9.70;99.90;;;;;;10077010;29;21003;-87
2023/03/13 19:53:33;;;;;;;10.93;7.17;;;9.80;99.90;;;;;;10085967;29;20240;-86
2023/03/13 19:58:36;;;;;;;11.93;7.53;;;9.90;99.90;;;;;;10079676;29;20268;-86
2023/03/13 20:03:39;;;;;;;15.17;8.40;;;10.00;99.90;;;;;;10057871;29;20266;-87
2023/03/13 20:08:42;;;;;;;10.90;8.60;;;10.10;99.90;;;;;;10066343;29;20252;-87
2023/03/13 20:13:44;;;;;;;8.00;6.20;;;10.20;99.90;;;;;;10107356;29;20264;-87
2023/03/13 20:18:48;;;;;;;13.60;8.07;;;10.30;99.90;;;;;;10102398;29;20324;-87
2023/03/13 20:23:51;;;;;;;11.27;6.30;;;10.40;99.90;;;;;;10063290;29;20661;-87
2023/03/13 20:28:55;;;;;;;8.27;6.47;;;10.40;99.90;;;;;;10082870;29;20324;-87
2023/03/13 20:33:58;;;;;;;6.50;4.73;;;10.40;99.90;;;;;;10101122;29;20245;-89
2023/03/13 20:39:01;;;;;;;7.57;5.50;;;10.50;99.90;;;;;;10086149;29;20277;-89
2023/03/13 20:44:03;;;;;;;8.33;5.50;;;10.60;99.90;;;;;;10076986;29;20607;-89
2023/03/13 20:49:06;;;;;;;10.13;5.97;;;10.70;99.90;;;;;;10061438;29;20301;-88
2023/03/13 20:54:09;;;;;;;9.37;6.17;;;10.80;99.90;;;;;;10096531;29;20292;-88
2023/03/13 20:59:12;;;;;;;8.33;5.80;;;10.60;99.90;;;;;;10096715;29;20674;-89
2023/03/13 21:04:14;;;;;;;6.50;5.10;;;10.60;99.90;;;;;;10075166;29;20237;-88
2023/03/13 21:09:17;;;;;;;10.23;5.97;;;10.50;99.90;;;;;;10083726;29;20237;-87
2023/03/13 21:14:19;;;;;;;9.50;5.13;;;10.60;99.90;;;;;;10076347;29;20240;-88
2023/03/13 21:19:22;;;;;;;11.13;6.43;;;10.70;99.90;;;;;;10053272;29;20313;-88
2023/03/13 21:24:25;;;;;;;8.90;5.60;;;10.70;99.90;;;;;;10052266;29;20270;-88
2023/03/13 21:29:27;;;;;;;8.23;5.37;;;10.80;99.90;;;;;;10087627;29;20257;-88
2023/03/13 21:34:30;;;;;;;6.90;4.90;;;10.80;99.90;;;;;;10068186;29;20240;-88
2023/03/13 21:39:32;;;;;;;6.17;5.00;;;10.90;99.90;;;;;;10080251;29;20336;-87
2023/03/13 21:44:35;;;;;;;6.63;4.80;;;10.90;99.90;;;;;;10065294;29;20811;-87
2023/03/13 21:49:38;;;;;;;7.53;5.13;;;10.90;99.90;;;;;;10094116;29;20252;-87
2023/03/13 21:54:40;;;;;;;7.37;4.80;;;10.90;99.90;;;;;;10091574;29;20252;-87
2023/03/13 21:59:43;;;;;;;6.63;5.13;;;11.00;99.90;;;;;;10064494;29;20326;-87
2023/03/13 22:04:45;;;;;;;10.87;5.53;;;11.00;99.90;;;;;;10064107;29;20245;-87
2023/03/13 22:09:48;;;;;;;6.30;5.10;;;11.00;99.90;;;;;;10085651;29;20236;-87
2023/03/13 22:14:51;;;;;;;9.07;5.43;;;11.10;99.90;;;;;;10095964;29;20252;-87
2023/03/13 22:19:56;;;;;;;9.80;5.33;;;11.00;99.90;;;;;;10085884;29;20305;-88
2023/03/13 22:24:59;;;;;;;9.17;5.43;;;11.00;99.90;;;;;;10080503;29;20253;-88
2023/03/13 22:30:01;;;;;;;6.60;4.47;;;11.10;99.90;;;;;;10062930;29;20718;-88
2023/03/13 22:35:04;;;;;;;6.90;4.77;;;11.10;99.90;;;;;;10076751;29;20766;-87
2023/03/13 22:40:09;;;;;;;5.77;4.37;;;11.10;99.90;;;;;;10073630;29;20261;-87
2023/03/13 22:45:12;;;;;;;8.40;4.30;;;11.20;99.90;;;;;;10074379;29;20337;-88
2023/03/13 22:50:14;;;;;;;7.37;4.10;;;11.20;99.90;;;;;;10094421;29;20244;-87
2023/03/13 22:55:18;;;;;;;7.37;4.17;;;11.30;99.90;;;;;;10080165;29;20303;-88
2023/03/13 23:00:21;;;;;;;9.27;4.50;;;11.20;99.90;;;;;;10089844;29;20682;-87
2023/03/13 23:05:24;;;;;;;4.37;3.40;;;11.20;99.90;;;;;;10091122;29;20245;-87
2023/03/13 23:10:26;;;;;;;6.67;4.27;;;11.10;99.90;;;;;;10082890;29;20308;-88
2023/03/13 23:15:29;;;;;;;7.13;4.20;;;11.10;99.90;;;;;;10091992;29;20774;-88
2023/03/13 23:20:52;;;;;;;6.87;4.07;;;11.00;99.90;;;;;;10078164;29;20655;-87
2023/03/13 23:25:59;;;;;;;8.07;4.40;;;11.00;99.90;;;;;;10082087;29;20241;-88
2023/03/13 23:31:18;;;;;;;4.73;4.10;;;11.00;99.90;;;;;;10057774;29;20265;-88
2023/03/13 23:36:20;;;;;;;4.97;4.00;;;10.90;99.90;;;;;;10071711;29;20253;-87
2023/03/13 23:41:23;;;;;;;7.47;5.07;;;10.90;99.90;;;;;;10061533;29;20328;-88
2023/03/13 23:46:26;;;;;;;7.60;4.67;;;10.80;99.90;;;;;;10056354;29;20244;-87
2023/03/13 23:51:28;;;;;;;7.37;4.13;;;10.80;99.90;;;;;;10067498;29;20310;-87
2023/03/13 23:56:31;;;;;;;7.17;4.00;;;10.80;99.90;;;;;;10055697;29;20249;-88
